createdAt,value
2022-09-26T00:00:05.998Z,1.04
2022-09-26T00:01:06.149Z,1.04
2022-09-26T00:02:06.280Z,1.04
2022-09-26T00:03:06.369Z,1.04
2022-09-26T00:04:06.442Z,1.04
2022-09-26T00:05:06.599Z,1.04
2022-09-26T00:06:06.707Z,1.04
2022-09-26T00:07:06.845Z,1.04
2022-09-26T00:08:06.945Z,1.04
2022-09-26T00:09:07.053Z,1.04
2022-09-26T00:10:07.205Z,1.04
2022-09-26T00:11:07.303Z,1.04
2022-09-26T00:12:07.458Z,1.04
2022-09-26T00:13:07.557Z,1.04
2022-09-26T00:14:07.719Z,1.04
2022-09-26T00:15:07.866Z,1.04
2022-09-26T00:16:08.024Z,1.04
2022-09-26T00:17:08.201Z,1.04
2022-09-26T00:18:08.273Z,1.04
2022-09-26T00:19:08.439Z,1.04
2022-09-26T00:20:08.524Z,1.04
2022-09-26T00:21:08.675Z,1.04
2022-09-26T00:22:08.777Z,1.04
2022-09-26T00:23:08.885Z,1.04
2022-09-26T00:24:08.983Z,1.04
2022-09-26T00:25:09.083Z,1.04
2022-09-26T00:26:09.183Z,1.04
2022-09-26T00:27:09.288Z,1.04
2022-09-26T00:28:09.390Z,1.04
2022-09-26T00:29:09.607Z,1.04
2022-09-26T00:30:09.691Z,1.04
2022-09-26T00:31:09.870Z,1.04
2022-09-26T00:32:09.942Z,1.04
2022-09-26T00:33:10.046Z,1.04
2022-09-26T00:34:10.200Z,1.04
2022-09-26T00:35:10.352Z,1.04
2022-09-26T00:36:10.464Z,1.04
2022-09-26T00:37:10.603Z,1.04
2022-09-26T00:38:10.752Z,1.04
2022-09-26T00:39:10.909Z,1.04
2022-09-26T00:40:11.040Z,1.04
2022-09-26T00:41:11.159Z,1.04
2022-09-26T00:42:11.310Z,1.04
2022-09-26T00:43:11.411Z,1.04
2022-09-26T00:44:11.513Z,1.04
2022-09-26T00:45:11.673Z,1.04
2022-09-26T00:46:11.854Z,1.04
2022-09-26T00:47:11.913Z,1.04
2022-09-26T00:48:12.068Z,1.04
2022-09-26T00:49:12.229Z,1.04
2022-09-26T00:50:12.269Z,1.04
2022-09-26T00:51:12.381Z,1.04
2022-09-26T00:52:12.525Z,1.04
2022-09-26T00:53:12.684Z,1.04
2022-09-26T00:54:12.836Z,1.04
2022-09-26T00:55:12.935Z,1.04
2022-09-26T00:56:13.091Z,1.04
2022-09-26T00:57:13.193Z,1.04
2022-09-26T00:58:13.337Z,1.04
2022-09-26T00:59:13.590Z,1.04
2022-09-26T01:00:13.598Z,1.04
2022-09-26T01:01:13.895Z,1.04
2022-09-26T01:02:13.977Z,1.04
2022-09-26T01:03:13.942Z,1.04
2022-09-26T01:04:14.102Z,1.04
2022-09-26T01:05:14.256Z,1.04
2022-09-26T01:06:14.351Z,1.04
2022-09-26T01:07:14.455Z,1.04
2022-09-26T01:08:14.606Z,1.04
2022-09-26T01:09:14.873Z,1.04
2022-09-26T01:10:14.862Z,1.04
2022-09-26T01:11:17.061Z,1.04
2022-09-26T01:12:15.121Z,1.04
2022-09-26T01:13:15.269Z,1.04
2022-09-26T01:14:15.469Z,1.04
2022-09-26T01:15:15.574Z,1.04
2022-09-26T01:16:15.821Z,1.04
2022-09-26T01:17:15.822Z,1.04
2022-09-26T01:18:15.973Z,1.04
2022-09-26T01:19:16.070Z,1.04
2022-09-26T01:20:16.237Z,1.04
2022-09-26T01:21:16.327Z,1.04
2022-09-26T01:22:16.429Z,1.04
2022-09-26T01:23:16.593Z,1.04
2022-09-26T01:24:16.730Z,1.04
2022-09-26T01:25:16.833Z,1.04
2022-09-26T01:26:16.985Z,1.04
2022-09-26T01:27:17.090Z,1.04
2022-09-26T01:28:17.243Z,1.04
2022-09-26T01:29:17.337Z,1.04
2022-09-26T01:30:17.443Z,1.04
2022-09-26T01:31:17.654Z,1.04
2022-09-26T01:32:17.706Z,1.04
2022-09-26T01:33:17.802Z,1.04
2022-09-26T01:34:17.958Z,1.04
2022-09-26T01:35:18.053Z,1.04
2022-09-26T01:36:18.201Z,1.04
2022-09-26T01:37:18.309Z,1.04
2022-09-26T01:38:18.407Z,1.04
2022-09-26T01:39:18.563Z,1.04
2022-09-26T01:40:18.708Z,1.04
2022-09-26T01:41:18.764Z,1.04
2022-09-26T01:42:18.911Z,1.04
2022-09-26T01:43:19.069Z,1.04
2022-09-26T01:44:19.221Z,1.04
2022-09-26T01:45:19.369Z,1.04
2022-09-26T01:46:19.581Z,1.04
2022-09-26T01:47:19.629Z,1.04
2022-09-26T01:48:19.772Z,1.04
2022-09-26T01:49:19.878Z,1.04
2022-09-26T01:50:20.041Z,1.04
2022-09-26T01:51:20.147Z,1.04
2022-09-26T01:52:20.285Z,1.04
2022-09-26T01:53:20.391Z,1.04
2022-09-26T01:54:20.531Z,1.04
2022-09-26T01:55:20.636Z,1.04
2022-09-26T01:56:20.749Z,1.04
2022-09-26T01:57:20.938Z,1.04
2022-09-26T01:58:21.088Z,1.04
2022-09-26T01:59:21.230Z,1.04
2022-09-26T02:00:21.343Z,1.04
2022-09-26T02:01:21.606Z,1.04
2022-09-26T02:02:21.731Z,1.04
2022-09-26T02:03:21.751Z,1.04
2022-09-26T02:04:21.853Z,1.04
2022-09-26T02:05:21.957Z,1.04
2022-09-26T02:06:22.059Z,1.04
2022-09-26T02:07:22.156Z,1.04
2022-09-26T02:08:22.261Z,1.04
2022-09-26T02:09:22.375Z,1.04
2022-09-26T02:10:22.528Z,1.04
2022-09-26T02:11:22.673Z,1.04
2022-09-26T02:12:22.768Z,1.04
2022-09-26T02:13:22.921Z,1.04
2022-09-26T02:14:23.039Z,1.04
2022-09-26T02:15:23.126Z,1.04
2022-09-26T02:16:23.320Z,1.04
2022-09-26T02:17:23.427Z,1.04
2022-09-26T02:18:23.574Z,1.04
2022-09-26T02:19:23.680Z,1.04
2022-09-26T02:20:23.784Z,1.04
2022-09-26T02:21:23.930Z,1.04
2022-09-26T02:22:24.036Z,1.04
2022-09-26T02:23:24.143Z,1.04
2022-09-26T02:24:24.235Z,1.04
2022-09-26T02:25:24.347Z,1.04
2022-09-26T02:26:24.442Z,1.04
2022-09-26T02:27:24.547Z,1.04
2022-09-26T02:28:24.699Z,1.04
2022-09-26T02:29:24.800Z,1.04
2022-09-26T02:30:24.957Z,1.04
2022-09-26T02:31:25.167Z,1.04
2022-09-26T02:32:25.214Z,1.04
2022-09-26T02:33:25.360Z,1.04
2022-09-26T02:34:25.459Z,1.04
2022-09-26T02:35:25.561Z,1.04
2022-09-26T02:36:25.662Z,1.04
2022-09-26T02:37:25.764Z,1.04
2022-09-26T02:38:25.861Z,1.04
2022-09-26T02:39:25.966Z,1.04
2022-09-26T02:40:26.151Z,1.04
2022-09-26T02:41:26.216Z,1.04
2022-09-26T02:42:26.380Z,1.04
2022-09-26T02:43:26.525Z,1.04
2022-09-26T02:44:26.628Z,1.04
2022-09-26T02:45:26.825Z,1.04
2022-09-26T02:46:26.878Z,1.04
2022-09-26T02:47:26.981Z,1.04
2022-09-26T02:48:27.143Z,1.04
2022-09-26T02:49:27.281Z,1.04
2022-09-26T02:50:27.441Z,1.04
2022-09-26T02:51:27.546Z,1.04
2022-09-26T02:52:27.644Z,1.04
2022-09-26T02:53:27.754Z,1.04
2022-09-26T02:54:27.845Z,1.04
2022-09-26T02:55:27.999Z,1.04
2022-09-26T02:56:28.095Z,1.04
2022-09-26T02:57:28.243Z,1.04
2022-09-26T02:58:28.396Z,1.04
2022-09-26T02:59:28.552Z,1.04
2022-09-26T03:00:28.662Z,1.04
2022-09-26T03:01:28.813Z,1.04
2022-09-26T03:02:28.852Z,1.04
2022-09-26T03:03:29.047Z,1.04
2022-09-26T03:04:29.186Z,1.04
2022-09-26T03:05:29.214Z,1.04
2022-09-26T03:06:29.312Z,1.04
2022-09-26T03:07:29.417Z,1.04
2022-09-26T03:08:29.523Z,1.04
2022-09-26T03:09:29.615Z,1.04
2022-09-26T03:10:29.773Z,1.04
2022-09-26T03:11:29.869Z,1.04
2022-09-26T03:12:29.972Z,1.04
2022-09-26T03:13:30.086Z,1.04
2022-09-26T03:14:30.236Z,1.04
2022-09-26T03:15:30.379Z,1.04
2022-09-26T03:16:30.641Z,1.04
2022-09-26T03:17:30.634Z,1.04
2022-09-26T03:18:30.735Z,1.04
2022-09-26T03:19:30.895Z,1.04
2022-09-26T03:20:31.019Z,1.04
2022-09-26T03:21:34.905Z,1.04
2022-09-26T03:22:31.276Z,1.04
2022-09-26T03:23:31.389Z,1.04
2022-09-26T03:24:31.493Z,1.04
2022-09-26T03:25:31.595Z,1.04
2022-09-26T03:26:31.697Z,1.04
2022-09-26T03:27:31.804Z,1.04
2022-09-26T03:28:35.425Z,1.04
2022-09-26T03:29:32.101Z,1.04
2022-09-26T03:30:32.207Z,1.04
2022-09-26T03:31:32.463Z,1.04
2022-09-26T03:32:32.510Z,1.04
2022-09-26T03:33:32.866Z,1.04
2022-09-26T03:34:32.969Z,1.04
2022-09-26T03:35:33.071Z,1.04
2022-09-26T03:36:33.174Z,1.04
2022-09-26T03:37:33.273Z,1.04
2022-09-26T03:38:33.368Z,1.04
2022-09-26T03:39:33.523Z,1.04
2022-09-26T03:40:33.737Z,1.04
2022-09-26T03:41:33.734Z,1.04
2022-09-26T03:42:33.830Z,1.04
2022-09-26T03:43:33.930Z,1.04
2022-09-26T03:44:34.039Z,1.04
2022-09-26T03:45:34.171Z,1.04
2022-09-26T03:46:39.054Z,1.04
2022-09-26T03:47:34.390Z,1.04
2022-09-26T03:48:34.539Z,1.04
2022-09-26T03:49:34.691Z,1.04
2022-09-26T03:50:34.852Z,1.04
2022-09-26T03:51:34.942Z,1.04
2022-09-26T03:52:35.100Z,1.04
2022-09-26T03:53:35.197Z,1.04
2022-09-26T03:54:35.346Z,1.04
2022-09-26T03:55:35.445Z,1.04
2022-09-26T03:56:35.554Z,1.04
2022-09-26T03:57:35.650Z,1.04
2022-09-26T03:58:35.751Z,1.04
2022-09-26T03:59:35.868Z,1.04
2022-09-26T04:00:35.990Z,1.04
2022-09-26T04:01:36.128Z,1.04
2022-09-26T04:02:36.399Z,1.04
2022-09-26T04:03:36.414Z,1.04
2022-09-26T04:04:36.515Z,1.04
2022-09-26T04:05:36.624Z,1.04
2022-09-26T04:06:36.749Z,1.04
2022-09-26T04:07:36.821Z,1.04
2022-09-26T04:08:36.975Z,1.04
2022-09-26T04:09:37.081Z,1.04
2022-09-26T04:10:37.195Z,1.04
2022-09-26T04:11:37.282Z,1.04
2022-09-26T04:12:37.428Z,1.04
2022-09-26T04:13:51.120Z,1.04
2022-09-26T04:14:37.686Z,1.04
2022-09-26T04:15:37.782Z,1.04
2022-09-26T04:16:38.002Z,1.04
2022-09-26T04:17:38.095Z,1.04
2022-09-26T04:18:38.238Z,1.04
2022-09-26T04:19:38.342Z,1.04
2022-09-26T04:20:38.443Z,1.04
2022-09-26T04:21:38.547Z,1.04
2022-09-26T04:22:38.694Z,1.04
2022-09-26T04:23:38.851Z,1.04
2022-09-26T04:24:38.948Z,1.04
2022-09-26T04:25:39.059Z,1.04
2022-09-26T04:26:39.152Z,1.04
2022-09-26T04:27:39.251Z,1.04
2022-09-26T04:28:39.408Z,1.04
2022-09-26T04:29:39.816Z,1.04
2022-09-26T04:30:39.966Z,1.04
2022-09-26T04:31:40.138Z,1.04
2022-09-26T04:32:40.260Z,2
2022-09-26T04:33:40.415Z,2
2022-09-26T04:34:40.566Z,2
2022-09-26T04:35:40.668Z,3.04
2022-09-26T04:36:40.773Z,3.04
2022-09-26T04:37:40.924Z,3.04
2022-09-26T04:38:41.119Z,4
2022-09-26T04:39:41.226Z,4
2022-09-26T04:40:42.875Z,5.04
2022-09-26T04:41:41.482Z,6
2022-09-26T04:42:41.581Z,7.04
2022-09-26T04:43:41.682Z,7.04
2022-09-26T04:44:41.996Z,7.04
2022-09-26T04:45:41.923Z,10
2022-09-26T04:46:41.996Z,13.04
2022-09-26T04:47:42.097Z,15.04
2022-09-26T04:48:42.253Z,16
2022-09-26T04:49:42.413Z,18
2022-09-26T04:50:42.501Z,22
2022-09-26T04:51:42.645Z,27.04
2022-09-26T04:52:42.747Z,37.04
2022-09-26T04:53:42.853Z,47.04
2022-09-26T04:54:42.951Z,59.04
2022-09-26T04:55:43.053Z,65.04
2022-09-26T04:56:43.161Z,69.04
2022-09-26T04:57:43.311Z,76
2022-09-26T04:58:43.460Z,85.04
2022-09-26T04:59:43.620Z,88
2022-09-26T05:00:43.821Z,93.04
2022-09-26T05:01:43.970Z,103.04
2022-09-26T05:02:44.125Z,110
2022-09-26T05:03:44.180Z,117.04
2022-09-26T05:04:44.336Z,124
2022-09-26T05:05:44.470Z,123.04
2022-09-26T05:06:44.627Z,109.04
2022-09-26T05:07:44.725Z,98
2022-09-26T05:08:44.878Z,117.04
2022-09-26T05:09:44.983Z,140
2022-09-26T05:10:45.077Z,146
2022-09-26T05:11:45.213Z,151.04
2022-09-26T05:12:45.365Z,161.04
2022-09-26T05:13:47.278Z,169.12
2022-09-26T05:14:45.699Z,168
2022-09-26T05:15:45.837Z,168
2022-09-26T05:16:46.067Z,168
2022-09-26T05:17:46.094Z,169.12
2022-09-26T05:18:46.245Z,170.08
2022-09-26T05:19:46.347Z,187.04
2022-09-26T05:20:46.457Z,213.12
2022-09-26T05:21:46.551Z,248
2022-09-26T05:22:46.717Z,279.04
2022-09-26T05:23:46.855Z,337.28
2022-09-26T05:24:47.004Z,435.2
2022-09-26T05:25:47.175Z,512
2022-09-26T05:26:47.281Z,574.08
2022-09-26T05:27:47.408Z,609.28
2022-09-26T05:28:47.515Z,604.16
2022-09-26T05:29:47.626Z,539.2
2022-09-26T05:30:47.772Z,456
2022-09-26T05:31:47.909Z,368
2022-09-26T05:32:47.969Z,352
2022-09-26T05:33:48.131Z,416
2022-09-26T05:34:48.302Z,446.08
2022-09-26T05:35:48.330Z,509.12
2022-09-26T05:36:48.492Z,667.52
2022-09-26T05:37:48.632Z,743.04
2022-09-26T05:38:48.725Z,826.24
2022-09-26T05:39:48.896Z,852.48
2022-09-26T05:40:49.045Z,796.16
2022-09-26T05:41:49.141Z,741.12
2022-09-26T05:42:49.285Z,773.12
2022-09-26T05:43:49.386Z,815.36
2022-09-26T05:44:49.506Z,769.28
2022-09-26T05:45:49.657Z,745.6
2022-09-26T05:46:49.844Z,912
2022-09-26T05:47:49.901Z,835.2
2022-09-26T05:48:50.044Z,829.44
2022-09-26T05:49:50.149Z,823.04
2022-09-26T05:50:50.354Z,845.44
2022-09-26T05:51:50.397Z,983.04
2022-09-26T05:52:51.104Z,1049.6
2022-09-26T05:53:50.702Z,1114.24
2022-09-26T05:54:51.552Z,1236.48
2022-09-26T05:55:50.961Z,1261.44
2022-09-26T05:56:51.830Z,1273.6
2022-09-26T05:57:51.271Z,1450.24
2022-09-26T05:58:52.004Z,1556.48
2022-09-26T05:59:51.583Z,1594.88
2022-09-26T06:00:52.310Z,1511.68
2022-09-26T06:01:52.052Z,1404.16
2022-09-26T06:02:51.973Z,1393.92
2022-09-26T06:03:52.714Z,1387.52
2022-09-26T06:04:52.279Z,1340.16
2022-09-26T06:05:52.876Z,1216
2022-09-26T06:06:52.533Z,1051.52
2022-09-26T06:07:53.008Z,1015.04
2022-09-26T06:08:52.785Z,1064.32
2022-09-26T06:09:52.959Z,1145.6
2022-09-26T06:10:53.048Z,1203.2
2022-09-26T06:11:53.200Z,1242.24
2022-09-26T06:12:53.339Z,1293.44
2022-09-26T06:13:53.451Z,1529.6
2022-09-26T06:14:53.605Z,1701.12
2022-09-26T06:15:53.758Z,1927.68
2022-09-26T06:16:53.910Z,2114.56
2022-09-26T06:17:54.001Z,2327.04
2022-09-26T06:18:54.151Z,2544.64
2022-09-26T06:19:54.251Z,2703.36
2022-09-26T06:20:54.371Z,2800.64
2022-09-26T06:21:54.515Z,2882.56
2022-09-26T06:22:54.605Z,3025.92
2022-09-26T06:23:54.758Z,3174.4
2022-09-26T06:24:54.869Z,3443.2
2022-09-26T06:25:55.014Z,3671.04
2022-09-26T06:26:55.164Z,3906.56
2022-09-26T06:27:59.734Z,4047.36
2022-09-26T06:28:55.420Z,4180.48
2022-09-26T06:29:55.600Z,4298.24
2022-09-26T06:30:55.721Z,4439.04
2022-09-26T06:31:55.854Z,4710.4
2022-09-26T06:32:55.925Z,5027.84
2022-09-26T06:33:56.086Z,5601.28
2022-09-26T06:34:56.177Z,6072.32
2022-09-26T06:35:56.288Z,6359.04
2022-09-26T06:36:56.432Z,6671.36
2022-09-26T06:37:56.549Z,7116.8
2022-09-26T06:38:56.690Z,7408.64
2022-09-26T06:39:59.322Z,7347.2
2022-09-26T06:40:56.939Z,7316.48
2022-09-26T06:41:57.039Z,7408.64
2022-09-26T06:42:57.155Z,7669.76
2022-09-26T06:43:57.249Z,7956.48
2022-09-26T06:44:57.442Z,8186.88
2022-09-26T06:45:57.562Z,8704
2022-09-26T06:46:57.735Z,9456.64
2022-09-26T06:47:57.852Z,9937.92
2022-09-26T06:48:57.974Z,10316.8
2022-09-26T06:49:58.132Z,11939.84
2022-09-26T06:50:58.216Z,23183.36
2022-09-26T06:51:58.343Z,14131.199
2022-09-26T06:53:00.241Z,10547.2
2022-09-26T06:53:58.571Z,10183.68
2022-09-26T06:54:58.667Z,12503.04
2022-09-26T06:55:58.819Z,13056
2022-09-26T06:56:58.922Z,18432
2022-09-26T06:57:59.066Z,35737.6
2022-09-26T06:58:59.239Z,35573.76
2022-09-26T06:59:59.328Z,26132.48
2022-09-26T07:00:59.760Z,11796.479
2022-09-26T07:01:59.728Z,37478.4
2022-09-26T07:02:59.733Z,37662.72
2022-09-26T07:03:59.830Z,37437.44
2022-09-26T07:04:59.976Z,37662.72
2022-09-26T07:06:00.085Z,38502.4
2022-09-26T07:07:00.193Z,38604.8
2022-09-26T07:08:00.334Z,40898.56
2022-09-26T07:09:04.029Z,41287.68
2022-09-26T07:10:00.594Z,42516.48
2022-09-26T07:11:16.084Z,42352.64
2022-09-26T07:12:15.212Z,41799.68
2022-09-26T07:13:00.953Z,42311.68
2022-09-26T07:14:01.095Z,43499.52
2022-09-26T07:15:01.246Z,45137.92
2022-09-26T07:16:01.406Z,45178.88
2022-09-26T07:17:01.506Z,46120.96
2022-09-26T07:18:01.606Z,45588.48
2022-09-26T07:19:01.704Z,47104
2022-09-26T07:20:01.813Z,47718.4
2022-09-26T07:21:01.982Z,47472.64
2022-09-26T07:22:02.111Z,50176
2022-09-26T07:23:02.212Z,52060.16
2022-09-26T07:24:02.366Z,50749.44
2022-09-26T07:25:02.475Z,51281.92
2022-09-26T07:26:02.584Z,52060.16
2022-09-26T07:27:02.677Z,56770.56
2022-09-26T07:28:02.771Z,60866.56
2022-09-26T07:29:02.897Z,64512
2022-09-26T07:30:03.036Z,63160.32
2022-09-26T07:31:03.265Z,59801.6
2022-09-26T07:32:03.384Z,60702.72
2022-09-26T07:33:03.383Z,60088.32
2022-09-26T07:34:03.483Z,23592.96
2022-09-26T07:35:03.591Z,22814.72
2022-09-26T07:36:05.562Z,60784.64
2022-09-26T07:37:03.844Z,61071.36
2022-09-26T07:38:04.020Z,21524.48
2022-09-26T07:39:04.155Z,62832.64
2022-09-26T07:40:04.245Z,19251.2
2022-09-26T07:41:04.399Z,68239.36
2022-09-26T07:42:04.448Z,71761.92
2022-09-26T07:43:18.897Z,71557.12
2022-09-26T07:44:53.247Z,69058.56
2022-09-26T07:46:05.071Z,29245.44
2022-09-26T07:47:05.322Z,64471.04
2022-09-26T07:48:05.315Z,39219.2
2022-09-26T07:49:05.456Z,31006.72
2022-09-26T07:50:05.610Z,39772.16
2022-09-26T07:51:09.080Z,22958.08
2022-09-26T07:52:05.820Z,17223.68
2022-09-26T07:53:05.911Z,49152
2022-09-26T07:54:06.097Z,14643.199
2022-09-26T07:55:06.123Z,33771.52
2022-09-26T07:56:06.225Z,28979.2
2022-09-26T07:57:06.328Z,18944
2022-09-26T07:58:06.430Z,27422.72
2022-09-26T07:59:06.528Z,73359.36
2022-09-26T08:00:06.689Z,68976.64
2022-09-26T08:01:06.831Z,68362.24
2022-09-26T08:02:07.057Z,60416
2022-09-26T08:03:07.194Z,13598.72
2022-09-26T08:04:07.362Z,15953.92
2022-09-26T08:05:07.390Z,19865.6
2022-09-26T08:06:07.539Z,13322.239
2022-09-26T08:07:07.649Z,12431.359
2022-09-26T08:08:07.740Z,12994.56
2022-09-26T08:09:07.898Z,17080.32
2022-09-26T08:10:08.006Z,30720
2022-09-26T08:11:08.102Z,22671.36
2022-09-26T08:12:08.192Z,79421.44
2022-09-26T08:13:08.298Z,70533.12
2022-09-26T08:14:08.480Z,78438.4
2022-09-26T08:15:08.533Z,57712.64
2022-09-26T08:16:08.699Z,57917.44
2022-09-26T08:17:13.433Z,19763.2
2022-09-26T08:18:08.916Z,57712.64
2022-09-26T08:19:09.056Z,45752.32
2022-09-26T08:20:09.122Z,14622.72
2022-09-26T08:21:09.268Z,13332.479
2022-09-26T08:22:09.372Z,13905.92
2022-09-26T08:23:09.524Z,21504
2022-09-26T08:24:09.691Z,16558.08
2022-09-26T08:25:09.774Z,26112
2022-09-26T08:26:09.922Z,19374.08
2022-09-26T08:27:10.021Z,48783.36
2022-09-26T08:28:10.180Z,23285.76
2022-09-26T08:29:10.327Z,84951.04
2022-09-26T08:30:10.476Z,22876.16
2022-09-26T08:31:10.733Z,18534.4
2022-09-26T08:32:10.793Z,18309.12
2022-09-26T08:33:11.301Z,30760.96
2022-09-26T08:34:11.526Z,42024.96
2022-09-26T08:35:11.540Z,86999.04
2022-09-26T08:36:11.651Z,19507.2
2022-09-26T08:37:11.748Z,18165.76
2022-09-26T08:38:11.893Z,14622.72
2022-09-26T08:39:12.058Z,13496.319
2022-09-26T08:40:12.204Z,13557.76
2022-09-26T08:41:12.300Z,14428.16
2022-09-26T08:42:12.404Z,15452.159
2022-09-26T08:43:12.558Z,16424.96
2022-09-26T08:44:12.699Z,18176
2022-09-26T08:45:12.768Z,18503.68
2022-09-26T08:46:12.960Z,18544.64
2022-09-26T08:47:13.012Z,21094.4
2022-09-26T08:48:13.113Z,70410.24
2022-09-26T08:49:13.261Z,75120.64
2022-09-26T08:50:13.394Z,92241.91
2022-09-26T08:51:13.520Z,89128.96
2022-09-26T08:52:13.656Z,89866.23
2022-09-26T08:53:13.888Z,90357.76
2022-09-26T08:54:14.056Z,90357.76
2022-09-26T08:55:14.124Z,89702.4
2022-09-26T08:56:14.222Z,91176.96
2022-09-26T08:57:14.337Z,90275.84
2022-09-26T08:58:14.430Z,89128.96
2022-09-26T08:59:14.578Z,91750.4
2022-09-26T09:00:14.686Z,92569.6
2022-09-26T09:01:14.893Z,96256
2022-09-26T09:02:15.149Z,71311.36
2022-09-26T09:03:15.227Z,26398.72
2022-09-26T09:04:15.413Z,98877.44
2022-09-26T09:05:15.413Z,97648.64
2022-09-26T09:06:15.548Z,24514.56
2022-09-26T09:07:15.712Z,17264.64
2022-09-26T09:08:15.852Z,16025.6
2022-09-26T09:09:16.007Z,95518.72
2022-09-26T09:10:16.108Z,95518.72
2022-09-26T09:11:16.260Z,96583.68
2022-09-26T09:12:18.568Z,97075.2
2022-09-26T09:13:16.510Z,91586.55
2022-09-26T09:14:16.794Z,101498.88
2022-09-26T09:15:24.983Z,100597.76
2022-09-26T09:16:16.881Z,100106.23
2022-09-26T09:17:16.924Z,26357.76
2022-09-26T09:18:17.017Z,106414.08
2022-09-26T09:19:17.128Z,23429.12
2022-09-26T09:20:17.218Z,32747.52
2022-09-26T09:21:17.380Z,105758.72
2022-09-26T09:22:17.472Z,104120.32
2022-09-26T09:23:17.627Z,104939.52
2022-09-26T09:24:17.754Z,93798.4
2022-09-26T09:25:17.873Z,103219.2
2022-09-26T09:28:18.775Z,109363.2
2022-09-26T09:29:19.293Z,105512.96
2022-09-26T09:30:18.588Z,104693.76
2022-09-26T09:31:18.764Z,105021.44
2022-09-26T09:32:18.838Z,106905.59
2022-09-26T09:33:18.989Z,104448
2022-09-26T09:34:19.097Z,85934.08
2022-09-26T09:35:19.206Z,65290.24
2022-09-26T09:36:19.352Z,104693.76
2022-09-26T09:37:19.452Z,101908.48
2022-09-26T09:38:19.610Z,102891.52
2022-09-26T09:39:19.710Z,105349.12
2022-09-26T09:40:19.938Z,50585.6
2022-09-26T09:41:19.963Z,74547.2
2022-09-26T09:42:20.060Z,102072.32
2022-09-26T09:43:20.206Z,73318.4
2022-09-26T09:44:20.360Z,54312.96
2022-09-26T09:45:20.462Z,116162.55
2022-09-26T09:46:20.696Z,105103.36
2022-09-26T09:47:20.715Z,111902.72
2022-09-26T09:48:20.825Z,91340.8
2022-09-26T09:49:20.966Z,107315.2
2022-09-26T09:50:21.071Z,111247.36
2022-09-26T09:51:21.217Z,64430.08
2022-09-26T09:52:21.334Z,110755.84
2022-09-26T09:53:21.478Z,26193.92
2022-09-26T09:54:21.583Z,54804.48
2022-09-26T09:55:21.729Z,44851.2
2022-09-26T09:56:21.833Z,89948.16
2022-09-26T09:57:21.987Z,113377.28
2022-09-26T09:58:22.085Z,112230.4
2022-09-26T09:59:22.254Z,111738.88
2022-09-26T10:00:22.385Z,111820.8
2022-09-26T10:01:22.543Z,109854.72
2022-09-26T10:02:22.692Z,108871.68
2022-09-26T10:03:22.827Z,110100.48
2022-09-26T10:04:22.846Z,20131.84
2022-09-26T10:05:22.952Z,16373.76
2022-09-26T10:06:44.867Z,14305.279
2022-09-26T10:07:23.247Z,14571.52
2022-09-26T10:08:23.405Z,34713.6
2022-09-26T10:09:34.999Z,44482.56
2022-09-26T10:10:23.664Z,44769.28
2022-09-26T10:11:23.812Z,15206.399
2022-09-26T10:12:23.916Z,104939.52
2022-09-26T10:13:24.061Z,104448
2022-09-26T10:14:24.219Z,83271.68
2022-09-26T10:15:24.394Z,14745.6
2022-09-26T10:16:24.612Z,105349.12
2022-09-26T10:17:24.675Z,50831.36
2022-09-26T10:18:25.956Z,105840.64
2022-09-26T10:19:24.921Z,105103.36
2022-09-26T10:20:25.074Z,106168.32
2022-09-26T10:21:25.224Z,104611.84
2022-09-26T10:22:25.381Z,44523.52
2022-09-26T10:23:25.485Z,53698.56
2022-09-26T10:24:25.585Z,105840.64
2022-09-26T10:25:25.730Z,104284.16
2022-09-26T10:26:30.562Z,106496
2022-09-26T10:27:25.985Z,102645.76
2022-09-26T10:28:26.090Z,103383.04
2022-09-26T10:29:26.245Z,104284.16
2022-09-26T10:30:26.358Z,25108.48
2022-09-26T10:31:26.591Z,25456.64
2022-09-26T10:32:26.593Z,105103.36
2022-09-26T10:33:26.706Z,23982.08
2022-09-26T10:34:26.806Z,21893.12
2022-09-26T10:35:26.899Z,106741.76
2022-09-26T10:36:27.002Z,105594.88
2022-09-26T10:37:27.101Z,104202.23
2022-09-26T10:38:27.217Z,104202.23
2022-09-26T10:39:27.312Z,104693.76
2022-09-26T10:40:27.499Z,104284.16
2022-09-26T10:41:27.562Z,104366.08
2022-09-26T10:42:32.110Z,104284.16
2022-09-26T10:43:27.808Z,103546.88
2022-09-26T10:44:27.967Z,103219.2
2022-09-26T10:45:28.276Z,102400
2022-09-26T10:46:28.465Z,101990.4
2022-09-26T10:47:28.574Z,101662.72
2022-09-26T10:48:28.680Z,102072.32
2022-09-26T10:49:28.852Z,102236.16
2022-09-26T10:50:28.972Z,102236.16
2022-09-26T10:51:29.137Z,102236.16
2022-09-26T10:52:29.280Z,102072.32
2022-09-26T10:53:29.382Z,101826.55
2022-09-26T10:54:29.487Z,102318.08
2022-09-26T10:55:29.633Z,103874.55
2022-09-26T10:56:29.740Z,103874.55
2022-09-26T10:57:30.677Z,104366.08
2022-09-26T10:58:30.111Z,104611.84
2022-09-26T10:59:30.046Z,105267.2
2022-09-26T11:00:30.168Z,106086.4
2022-09-26T11:01:30.302Z,106004.48
2022-09-26T11:02:30.387Z,106659.84
2022-09-26T11:03:30.632Z,92815.36
2022-09-26T11:04:30.711Z,103710.72
2022-09-26T11:05:30.849Z,106332.16
2022-09-26T11:06:31.012Z,107806.72
2022-09-26T11:07:31.120Z,109445.12
2022-09-26T11:08:31.208Z,110018.55
2022-09-26T11:09:31.360Z,109363.2
2022-09-26T11:10:31.520Z,108462.08
2022-09-26T11:11:31.613Z,106496
2022-09-26T11:12:31.720Z,104775.68
2022-09-26T11:13:31.819Z,103219.2
2022-09-26T11:14:31.920Z,103464.96
2022-09-26T11:15:32.185Z,106414.08
2022-09-26T11:16:36.507Z,109117.44
2022-09-26T11:17:32.276Z,109445.12
2022-09-26T11:18:32.428Z,108707.84
2022-09-26T11:19:32.568Z,107888.64
2022-09-26T11:20:32.752Z,109035.52
2022-09-26T11:21:32.892Z,108298.23
2022-09-26T11:22:33.295Z,105676.8
2022-09-26T11:23:33.161Z,106496
2022-09-26T11:24:33.278Z,106496
2022-09-26T11:29:33.961Z,106496
2022-09-26T11:30:34.142Z,107233.28
2022-09-26T11:31:34.331Z,105676.8
2022-09-26T11:32:34.441Z,104284.16
2022-09-26T11:33:34.575Z,104202.23
2022-09-26T11:34:34.698Z,104775.68
2022-09-26T11:35:34.885Z,101990.4
2022-09-26T11:36:35.019Z,94945.28
2022-09-26T11:37:35.152Z,106004.48
2022-09-26T11:38:35.313Z,98795.52
2022-09-26T11:39:35.461Z,104366.08
2022-09-26T11:40:35.660Z,107560.96
2022-09-26T11:41:35.715Z,111247.36
2022-09-26T11:42:36.001Z,111165.44
2022-09-26T11:43:36.124Z,111083.52
2022-09-26T11:44:36.274Z,109445.12
2022-09-26T11:45:40.012Z,108462.08
2022-09-26T11:46:36.567Z,104857.59
2022-09-26T11:47:36.629Z,78233.6
2022-09-26T11:48:36.736Z,95682.55
2022-09-26T11:49:36.838Z,110592
2022-09-26T11:50:36.978Z,101089.28
2022-09-26T11:51:37.117Z,115261.44
2022-09-26T11:52:37.282Z,114032.64
2022-09-26T11:53:37.384Z,111820.8
2022-09-26T11:54:37.739Z,108216.32
2022-09-26T11:55:37.599Z,106659.84
2022-09-26T11:56:38.069Z,105103.36
2022-09-26T11:57:38.140Z,104693.76
2022-09-26T11:58:38.293Z,107233.28
2022-09-26T11:59:38.399Z,17326.08
2022-09-26T12:00:38.546Z,18237.44
2022-09-26T12:01:38.702Z,19179.52
2022-09-26T12:02:38.889Z,21340.16
2022-09-26T12:03:39.157Z,23633.92
2022-09-26T12:04:39.113Z,110592
2022-09-26T12:05:39.218Z,110100.48
2022-09-26T12:06:39.335Z,63979.52
2022-09-26T12:07:39.468Z,109117.44
2022-09-26T12:08:39.610Z,108625.91
2022-09-26T12:09:39.766Z,107970.55
2022-09-26T12:10:39.870Z,106905.59
2022-09-26T12:11:40.031Z,105512.96
2022-09-26T12:12:40.714Z,104857.59
2022-09-26T12:13:40.273Z,103546.88
2022-09-26T12:14:40.379Z,100761.6
2022-09-26T12:15:40.548Z,97566.72
2022-09-26T12:16:40.578Z,95928.32
2022-09-26T12:17:40.685Z,94044.16
2022-09-26T12:18:40.782Z,93061.12
2022-09-26T12:19:40.938Z,92487.68
2022-09-26T12:20:41.035Z,92569.6
2022-09-26T12:21:41.183Z,92405.76
2022-09-26T12:22:41.336Z,92160
2022-09-26T12:23:41.507Z,91340.8
2022-09-26T12:24:41.656Z,91586.55
2022-09-26T12:25:41.740Z,91504.64
2022-09-26T12:26:41.899Z,91586.55
2022-09-26T12:27:41.993Z,92651.52
2022-09-26T12:28:42.151Z,93798.4
2022-09-26T12:29:42.264Z,74874.88
2022-09-26T12:30:42.452Z,99532.8
2022-09-26T12:31:42.575Z,23449.6
2022-09-26T12:32:42.606Z,22487.04
2022-09-26T12:33:42.758Z,30822.4
2022-09-26T12:34:42.908Z,73113.6